sensor_id;sensor_type;location;lat;lon;timestamp;P1;durP1;ratioP1;P2;durP2;ratioP2
38937;SDS011;24727;51.974;20.868;2023-07-24T00:01:11;4.72;;;3.47;;
38937;SDS011;24727;51.974;20.868;2023-07-24T00:03:37;4.47;;;3.70;;
38937;SDS011;24727;51.974;20.868;2023-07-24T00:06:05;6.20;;;3.70;;
38937;SDS011;24727;51.974;20.868;2023-07-24T00:08:31;5.07;;;4.10;;
38937;SDS011;24727;51.974;20.868;2023-07-24T00:10:57;7.10;;;3.92;;
38937;SDS011;24727;51.974;20.868;2023-07-24T00:13:24;5.90;;;4.53;;
38937;SDS011;24727;51.974;20.868;2023-07-24T00:15:50;6.57;;;4.68;;
38937;SDS011;24727;51.974;20.868;2023-07-24T00:18:16;7.32;;;4.00;;
38937;SDS011;24727;51.974;20.868;2023-07-24T00:20:42;5.05;;;4.15;;
38937;SDS011;24727;51.974;20.868;2023-07-24T00:23:08;8.10;;;4.43;;
38937;SDS011;24727;51.974;20.868;2023-07-24T00:25:34;5.25;;;4.25;;
38937;SDS011;24727;51.974;20.868;2023-07-24T00:28:00;9.13;;;4.32;;
38937;SDS011;24727;51.974;20.868;2023-07-24T00:30:26;4.93;;;4.13;;
38937;SDS011;24727;51.974;20.868;2023-07-24T00:32:52;5.72;;;4.35;;
38937;SDS011;24727;51.974;20.868;2023-07-24T00:35:17;8.95;;;3.88;;
38937;SDS011;24727;51.974;20.868;2023-07-24T00:37:43;10.75;;;4.22;;
38937;SDS011;24727;51.974;20.868;2023-07-24T00:40:10;4.90;;;3.90;;
38937;SDS011;24727;51.974;20.868;2023-07-24T00:42:36;8.93;;;4.85;;
38937;SDS011;24727;51.974;20.868;2023-07-24T00:45:03;6.40;;;4.30;;
38937;SDS011;24727;51.974;20.868;2023-07-24T00:47:31;6.28;;;3.60;;
38937;SDS011;24727;51.974;20.868;2023-07-24T00:49:58;5.85;;;3.85;;
38937;SDS011;24727;51.974;20.868;2023-07-24T00:52:24;5.07;;;4.10;;
38937;SDS011;24727;51.974;20.868;2023-07-24T00:54:53;7.47;;;3.92;;
38937;SDS011;24727;51.974;20.868;2023-07-24T00:57:26;5.13;;;3.40;;
38937;SDS011;24727;51.974;20.868;2023-07-24T01:02:19;7.90;;;4.30;;
38937;SDS011;24727;51.974;20.868;2023-07-24T01:04:45;4.45;;;3.75;;
38937;SDS011;24727;51.974;20.868;2023-07-24T01:07:11;4.82;;;3.60;;
38937;SDS011;24727;51.974;20.868;2023-07-24T01:09:38;5.30;;;3.63;;
38937;SDS011;24727;51.974;20.868;2023-07-24T01:12:10;5.10;;;3.40;;
38937;SDS011;24727;51.974;20.868;2023-07-24T01:14:44;5.82;;;3.67;;
38937;SDS011;24727;51.974;20.868;2023-07-24T01:17:15;5.85;;;3.80;;
38937;SDS011;24727;51.974;20.868;2023-07-24T01:19:46;4.82;;;3.65;;
38937;SDS011;24727;51.974;20.868;2023-07-24T01:27:49;6.22;;;3.70;;
38937;SDS011;24727;51.974;20.868;2023-07-24T01:30:20;6.82;;;3.40;;
38937;SDS011;24727;51.974;20.868;2023-07-24T01:32:49;6.00;;;3.00;;
38937;SDS011;24727;51.974;20.868;2023-07-24T01:35:23;6.45;;;3.50;;
38937;SDS011;24727;51.974;20.868;2023-07-24T01:37:56;7.13;;;3.58;;
38937;SDS011;24727;51.974;20.868;2023-07-24T01:40:22;11.70;;;3.60;;
38937;SDS011;24727;51.974;20.868;2023-07-24T01:42:50;5.90;;;3.00;;
38937;SDS011;24727;51.974;20.868;2023-07-24T01:45:16;4.60;;;3.28;;
38937;SDS011;24727;51.974;20.868;2023-07-24T01:47:43;3.28;;;2.97;;
38937;SDS011;24727;51.974;20.868;2023-07-24T01:50:09;9.15;;;3.70;;
38937;SDS011;24727;51.974;20.868;2023-07-24T01:52:35;6.43;;;3.80;;
38937;SDS011;24727;51.974;20.868;2023-07-24T01:55:02;5.28;;;3.72;;
38937;SDS011;24727;51.974;20.868;2023-07-24T01:57:34;6.60;;;3.72;;
38937;SDS011;24727;51.974;20.868;2023-07-24T02:00:00;5.55;;;3.47;;
38937;SDS011;24727;51.974;20.868;2023-07-24T02:02:26;8.43;;;4.07;;
38937;SDS011;24727;51.974;20.868;2023-07-24T02:04:52;4.93;;;3.50;;
38937;SDS011;24727;51.974;20.868;2023-07-24T02:07:20;6.10;;;3.65;;
38937;SDS011;24727;51.974;20.868;2023-07-24T02:09:46;6.55;;;3.50;;
38937;SDS011;24727;51.974;20.868;2023-07-24T02:12:12;7.88;;;4.10;;
38937;SDS011;24727;51.974;20.868;2023-07-24T02:14:39;6.60;;;3.65;;
38937;SDS011;24727;51.974;20.868;2023-07-24T02:17:05;11.55;;;3.58;;
38937;SDS011;24727;51.974;20.868;2023-07-24T02:19:30;5.38;;;3.15;;
38937;SDS011;24727;51.974;20.868;2023-07-24T02:21:58;3.63;;;3.00;;
38937;SDS011;24727;51.974;20.868;2023-07-24T02:24:23;7.72;;;4.72;;
38937;SDS011;24727;51.974;20.868;2023-07-24T02:26:50;5.80;;;3.22;;
38937;SDS011;24727;51.974;20.868;2023-07-24T02:29:16;5.68;;;3.05;;
38937;SDS011;24727;51.974;20.868;2023-07-24T02:31:44;3.92;;;3.47;;
38937;SDS011;24727;51.974;20.868;2023-07-24T02:34:11;8.23;;;3.67;;
38937;SDS011;24727;51.974;20.868;2023-07-24T02:36:37;4.75;;;3.67;;
38937;SDS011;24727;51.974;20.868;2023-07-24T02:39:04;3.88;;;3.40;;
38937;SDS011;24727;51.974;20.868;2023-07-24T02:41:30;3.67;;;2.95;;
38937;SDS011;24727;51.974;20.868;2023-07-24T02:43:56;6.28;;;3.50;;
38937;SDS011;24727;51.974;20.868;2023-07-24T02:46:23;4.72;;;3.13;;
38937;SDS011;24727;51.974;20.868;2023-07-24T02:48:50;4.63;;;2.95;;
38937;SDS011;24727;51.974;20.868;2023-07-24T02:51:17;6.00;;;3.58;;
38937;SDS011;24727;51.974;20.868;2023-07-24T02:53:43;6.85;;;3.20;;
38937;SDS011;24727;51.974;20.868;2023-07-24T02:56:10;4.03;;;2.78;;
38937;SDS011;24727;51.974;20.868;2023-07-24T02:58:36;5.47;;;3.30;;
38937;SDS011;24727;51.974;20.868;2023-07-24T03:01:03;4.72;;;3.35;;
38937;SDS011;24727;51.974;20.868;2023-07-24T03:03:29;5.22;;;2.83;;
38937;SDS011;24727;51.974;20.868;2023-07-24T03:05:55;7.43;;;3.80;;
38937;SDS011;24727;51.974;20.868;2023-07-24T03:08:21;5.38;;;3.33;;
38937;SDS011;24727;51.974;20.868;2023-07-24T03:10:47;6.72;;;3.30;;
38937;SDS011;24727;51.974;20.868;2023-07-24T03:13:15;7.85;;;3.83;;
38937;SDS011;24727;51.974;20.868;2023-07-24T03:15:41;4.70;;;3.65;;
38937;SDS011;24727;51.974;20.868;2023-07-24T03:18:07;6.68;;;4.07;;
38937;SDS011;24727;51.974;20.868;2023-07-24T03:20:34;10.15;;;4.43;;
38937;SDS011;24727;51.974;20.868;2023-07-24T03:23:00;6.40;;;4.18;;
38937;SDS011;24727;51.974;20.868;2023-07-24T03:25:26;4.65;;;3.58;;
38937;SDS011;24727;51.974;20.868;2023-07-24T03:27:59;5.45;;;3.95;;
38937;SDS011;24727;51.974;20.868;2023-07-24T03:30:28;6.85;;;3.90;;
38937;SDS011;24727;51.974;20.868;2023-07-24T03:32:56;5.18;;;3.80;;
38937;SDS011;24727;51.974;20.868;2023-07-24T03:35:22;3.90;;;3.42;;
38937;SDS011;24727;51.974;20.868;2023-07-24T03:37:50;4.97;;;3.90;;
38937;SDS011;24727;51.974;20.868;2023-07-24T03:40:18;6.32;;;3.63;;
38937;SDS011;24727;51.974;20.868;2023-07-24T03:42:45;8.23;;;3.90;;
38937;SDS011;24727;51.974;20.868;2023-07-24T03:45:10;9.93;;;3.83;;
38937;SDS011;24727;51.974;20.868;2023-07-24T03:47:36;8.00;;;3.83;;
38937;SDS011;24727;51.974;20.868;2023-07-24T03:50:02;7.07;;;3.47;;
38937;SDS011;24727;51.974;20.868;2023-07-24T03:52:29;9.70;;;4.20;;
38937;SDS011;24727;51.974;20.868;2023-07-24T03:54:55;5.43;;;3.90;;
38937;SDS011;24727;51.974;20.868;2023-07-24T03:57:21;5.28;;;4.30;;
38937;SDS011;24727;51.974;20.868;2023-07-24T03:59:48;6.53;;;3.92;;
38937;SDS011;24727;51.974;20.868;2023-07-24T04:02:14;6.68;;;3.85;;
38937;SDS011;24727;51.974;20.868;2023-07-24T04:04:39;5.10;;;4.30;;
38937;SDS011;24727;51.974;20.868;2023-07-24T04:07:07;6.93;;;4.20;;
38937;SDS011;24727;51.974;20.868;2023-07-24T04:09:33;6.63;;;3.88;;
38937;SDS011;24727;51.974;20.868;2023-07-24T04:11:59;6.47;;;4.15;;
38937;SDS011;24727;51.974;20.868;2023-07-24T04:14:25;5.75;;;3.80;;
38937;SDS011;24727;51.974;20.868;2023-07-24T04:16:51;6.10;;;3.92;;
38937;SDS011;24727;51.974;20.868;2023-07-24T04:19:18;6.90;;;4.57;;
38937;SDS011;24727;51.974;20.868;2023-07-24T04:21:43;8.65;;;4.28;;
38937;SDS011;24727;51.974;20.868;2023-07-24T04:24:09;7.82;;;4.70;;
38937;SDS011;24727;51.974;20.868;2023-07-24T04:26:36;5.75;;;4.70;;
38937;SDS011;24727;51.974;20.868;2023-07-24T04:29:02;8.00;;;4.55;;
38937;SDS011;24727;51.974;20.868;2023-07-24T04:31:28;9.52;;;4.18;;
38937;SDS011;24727;51.974;20.868;2023-07-24T04:33:53;5.97;;;3.92;;
38937;SDS011;24727;51.974;20.868;2023-07-24T04:36:19;5.78;;;4.68;;
38937;SDS011;24727;51.974;20.868;2023-07-24T04:38:45;7.07;;;3.90;;
38937;SDS011;24727;51.974;20.868;2023-07-24T04:41:12;6.45;;;3.80;;
38937;SDS011;24727;51.974;20.868;2023-07-24T04:43:38;7.10;;;5.20;;
38937;SDS011;24727;51.974;20.868;2023-07-24T04:46:04;13.55;;;6.65;;
38937;SDS011;24727;51.974;20.868;2023-07-24T04:48:30;11.98;;;7.22;;
38937;SDS011;24727;51.974;20.868;2023-07-24T04:50:56;11.43;;;6.57;;
38937;SDS011;24727;51.974;20.868;2023-07-24T04:53:23;8.63;;;4.95;;
38937;SDS011;24727;51.974;20.868;2023-07-24T04:55:49;7.97;;;5.13;;
38937;SDS011;24727;51.974;20.868;2023-07-24T04:58:15;7.15;;;4.28;;
38937;SDS011;24727;51.974;20.868;2023-07-24T05:00:42;8.23;;;4.38;;
38937;SDS011;24727;51.974;20.868;2023-07-24T05:03:08;8.95;;;4.85;;
38937;SDS011;24727;51.974;20.868;2023-07-24T05:05:37;5.90;;;4.85;;
38937;SDS011;24727;51.974;20.868;2023-07-24T05:08:03;9.18;;;4.47;;
38937;SDS011;24727;51.974;20.868;2023-07-24T05:10:39;11.38;;;4.60;;
38937;SDS011;24727;51.974;20.868;2023-07-24T05:13:06;5.47;;;4.00;;
38937;SDS011;24727;51.974;20.868;2023-07-24T05:15:32;9.27;;;4.35;;
38937;SDS011;24727;51.974;20.868;2023-07-24T05:17:58;6.95;;;3.70;;
38937;SDS011;24727;51.974;20.868;2023-07-24T05:20:25;7.85;;;3.42;;
38937;SDS011;24727;51.974;20.868;2023-07-24T05:22:51;4.65;;;3.67;;
38937;SDS011;24727;51.974;20.868;2023-07-24T05:27:47;4.47;;;3.47;;
38937;SDS011;24727;51.974;20.868;2023-07-24T05:30:13;6.60;;;3.85;;
38937;SDS011;24727;51.974;20.868;2023-07-24T05:32:41;6.57;;;3.78;;
38937;SDS011;24727;51.974;20.868;2023-07-24T05:35:07;7.22;;;3.28;;
38937;SDS011;24727;51.974;20.868;2023-07-24T05:37:33;5.30;;;3.40;;
38937;SDS011;24727;51.974;20.868;2023-07-24T05:40:00;4.95;;;3.13;;
38937;SDS011;24727;51.974;20.868;2023-07-24T05:42:26;5.38;;;3.13;;
38937;SDS011;24727;51.974;20.868;2023-07-24T05:44:52;5.22;;;3.30;;
38937;SDS011;24727;51.974;20.868;2023-07-24T05:47:19;5.88;;;3.17;;
38937;SDS011;24727;51.974;20.868;2023-07-24T05:49:45;7.20;;;3.05;;
38937;SDS011;24727;51.974;20.868;2023-07-24T05:52:11;4.32;;;2.92;;
38937;SDS011;24727;51.974;20.868;2023-07-24T05:54:37;4.32;;;2.72;;
38937;SDS011;24727;51.974;20.868;2023-07-24T05:57:02;5.22;;;2.70;;
38937;SDS011;24727;51.974;20.868;2023-07-24T05:59:28;3.80;;;2.55;;
38937;SDS011;24727;51.974;20.868;2023-07-24T06:01:55;4.90;;;2.70;;
38937;SDS011;24727;51.974;20.868;2023-07-24T06:04:21;8.02;;;2.60;;
38937;SDS011;24727;51.974;20.868;2023-07-24T06:06:47;3.22;;;2.38;;
38937;SDS011;24727;51.974;20.868;2023-07-24T06:09:13;4.47;;;2.55;;
38937;SDS011;24727;51.974;20.868;2023-07-24T06:11:39;3.45;;;2.67;;
38937;SDS011;24727;51.974;20.868;2023-07-24T06:14:06;3.08;;;2.42;;
38937;SDS011;24727;51.974;20.868;2023-07-24T06:16:32;4.28;;;2.50;;
38937;SDS011;24727;51.974;20.868;2023-07-24T06:18:58;5.32;;;2.58;;
38937;SDS011;24727;51.974;20.868;2023-07-24T06:21:24;8.18;;;2.97;;
38937;SDS011;24727;51.974;20.868;2023-07-24T06:23:50;7.65;;;2.70;;
38937;SDS011;24727;51.974;20.868;2023-07-24T06:26:16;6.78;;;2.38;;
38937;SDS011;24727;51.974;20.868;2023-07-24T06:28:42;5.07;;;2.50;;
38937;SDS011;24727;51.974;20.868;2023-07-24T06:31:08;9.40;;;2.30;;
38937;SDS011;24727;51.974;20.868;2023-07-24T06:33:35;3.78;;;2.55;;
38937;SDS011;24727;51.974;20.868;2023-07-24T06:36:01;9.13;;;2.58;;
38937;SDS011;24727;51.974;20.868;2023-07-24T06:38:27;7.60;;;3.25;;
38937;SDS011;24727;51.974;20.868;2023-07-24T06:40:54;7.47;;;2.67;;
38937;SDS011;24727;51.974;20.868;2023-07-24T06:43:22;4.28;;;2.33;;
38937;SDS011;24727;51.974;20.868;2023-07-24T06:45:49;7.47;;;2.65;;
38937;SDS011;24727;51.974;20.868;2023-07-24T06:48:14;6.07;;;2.55;;
38937;SDS011;24727;51.974;20.868;2023-07-24T06:50:40;6.97;;;2.80;;
38937;SDS011;24727;51.974;20.868;2023-07-24T06:53:07;7.47;;;2.00;;
38937;SDS011;24727;51.974;20.868;2023-07-24T06:55:35;8.90;;;2.08;;
38937;SDS011;24727;51.974;20.868;2023-07-24T06:58:01;6.38;;;2.45;;
38937;SDS011;24727;51.974;20.868;2023-07-24T07:00:27;5.15;;;2.55;;
38937;SDS011;24727;51.974;20.868;2023-07-24T07:02:53;3.97;;;2.30;;
38937;SDS011;24727;51.974;20.868;2023-07-24T07:05:19;6.63;;;2.10;;
38937;SDS011;24727;51.974;20.868;2023-07-24T07:07:45;6.15;;;2.85;;
38937;SDS011;24727;51.974;20.868;2023-07-24T07:10:11;4.72;;;2.15;;
38937;SDS011;24727;51.974;20.868;2023-07-24T07:12:37;6.07;;;2.63;;
38937;SDS011;24727;51.974;20.868;2023-07-24T07:15:03;3.03;;;2.38;;
38937;SDS011;24727;51.974;20.868;2023-07-24T07:17:29;4.47;;;2.15;;
38937;SDS011;24727;51.974;20.868;2023-07-24T07:19:55;3.10;;;2.25;;
38937;SDS011;24727;51.974;20.868;2023-07-24T07:22:23;5.53;;;2.05;;
38937;SDS011;24727;51.974;20.868;2023-07-24T07:24:50;4.68;;;2.10;;
38937;SDS011;24727;51.974;20.868;2023-07-24T07:27:16;5.03;;;2.15;;
38937;SDS011;24727;51.974;20.868;2023-07-24T07:29:43;5.05;;;1.88;;
38937;SDS011;24727;51.974;20.868;2023-07-24T07:32:09;10.15;;;2.17;;
38937;SDS011;24727;51.974;20.868;2023-07-24T07:34:35;7.68;;;2.13;;
38937;SDS011;24727;51.974;20.868;2023-07-24T07:37:03;5.07;;;2.00;;
38937;SDS011;24727;51.974;20.868;2023-07-24T07:39:30;3.72;;;1.60;;
38937;SDS011;24727;51.974;20.868;2023-07-24T07:41:56;5.25;;;1.75;;
38937;SDS011;24727;51.974;20.868;2023-07-24T07:44:22;6.20;;;1.77;;
38937;SDS011;24727;51.974;20.868;2023-07-24T07:46:48;3.47;;;1.90;;
38937;SDS011;24727;51.974;20.868;2023-07-24T07:49:15;5.18;;;1.92;;
38937;SDS011;24727;51.974;20.868;2023-07-24T07:51:41;3.10;;;1.70;;
38937;SDS011;24727;51.974;20.868;2023-07-24T07:54:07;3.20;;;1.50;;
38937;SDS011;24727;51.974;20.868;2023-07-24T07:56:32;4.20;;;1.75;;
38937;SDS011;24727;51.974;20.868;2023-07-24T07:58:59;3.50;;;1.77;;
38937;SDS011;24727;51.974;20.868;2023-07-24T08:01:27;6.38;;;1.95;;
38937;SDS011;24727;51.974;20.868;2023-07-24T08:03:53;1.55;;;1.45;;
38937;SDS011;24727;51.974;20.868;2023-07-24T08:06:20;2.10;;;1.90;;
38937;SDS011;24727;51.974;20.868;2023-07-24T08:08:47;5.32;;;1.40;;
38937;SDS011;24727;51.974;20.868;2023-07-24T08:11:13;3.58;;;1.60;;
38937;SDS011;24727;51.974;20.868;2023-07-24T08:13:40;3.80;;;1.60;;
38937;SDS011;24727;51.974;20.868;2023-07-24T08:16:12;2.28;;;1.83;;
38937;SDS011;24727;51.974;20.868;2023-07-24T08:18:45;4.18;;;2.00;;
38937;SDS011;24727;51.974;20.868;2023-07-24T08:21:13;2.45;;;2.10;;
38937;SDS011;24727;51.974;20.868;2023-07-24T08:23:41;4.25;;;2.10;;
38937;SDS011;24727;51.974;20.868;2023-07-24T08:26:07;4.45;;;2.50;;
38937;SDS011;24727;51.974;20.868;2023-07-24T08:28:33;6.03;;;2.92;;
38937;SDS011;24727;51.974;20.868;2023-07-24T08:31:03;2.70;;;1.88;;
38937;SDS011;24727;51.974;20.868;2023-07-24T08:33:29;3.00;;;1.90;;
38937;SDS011;24727;51.974;20.868;2023-07-24T08:36:02;4.85;;;2.33;;
38937;SDS011;24727;51.974;20.868;2023-07-24T08:38:31;3.88;;;2.45;;
38937;SDS011;24727;51.974;20.868;2023-07-24T08:41:04;5.43;;;2.85;;
38937;SDS011;24727;51.974;20.868;2023-07-24T08:43:33;5.38;;;2.40;;
38937;SDS011;24727;51.974;20.868;2023-07-24T08:46:01;6.47;;;2.50;;
38937;SDS011;24727;51.974;20.868;2023-07-24T08:48:34;5.30;;;2.15;;
38937;SDS011;24727;51.974;20.868;2023-07-24T08:51:03;5.65;;;2.72;;
38937;SDS011;24727;51.974;20.868;2023-07-24T08:53:34;3.07;;;2.60;;
38937;SDS011;24727;51.974;20.868;2023-07-24T08:56:05;2.35;;;2.10;;
38937;SDS011;24727;51.974;20.868;2023-07-24T08:58:33;4.50;;;2.53;;
38937;SDS011;24727;51.974;20.868;2023-07-24T09:01:01;5.30;;;2.88;;
38937;SDS011;24727;51.974;20.868;2023-07-24T09:03:28;3.83;;;2.22;;
38937;SDS011;24727;51.974;20.868;2023-07-24T09:05:58;5.43;;;3.00;;
38937;SDS011;24727;51.974;20.868;2023-07-24T09:08:31;3.35;;;2.45;;
38937;SDS011;24727;51.974;20.868;2023-07-24T09:11:01;3.45;;;2.95;;
38937;SDS011;24727;51.974;20.868;2023-07-24T09:13:28;3.33;;;2.40;;
38937;SDS011;24727;51.974;20.868;2023-07-24T09:15:55;3.80;;;2.38;;
38937;SDS011;24727;51.974;20.868;2023-07-24T09:18:55;6.07;;;2.60;;
38937;SDS011;24727;51.974;20.868;2023-07-24T09:21:26;3.47;;;2.55;;
38937;SDS011;24727;51.974;20.868;2023-07-24T09:23:54;5.75;;;2.83;;
38937;SDS011;24727;51.974;20.868;2023-07-24T09:26:20;4.25;;;2.35;;
38937;SDS011;24727;51.974;20.868;2023-07-24T09:28:53;2.55;;;2.25;;
38937;SDS011;24727;51.974;20.868;2023-07-24T09:31:19;3.10;;;2.42;;
38937;SDS011;24727;51.974;20.868;2023-07-24T09:33:46;3.13;;;2.72;;
38937;SDS011;24727;51.974;20.868;2023-07-24T09:36:12;3.15;;;2.55;;
38937;SDS011;24727;51.974;20.868;2023-07-24T09:38:40;3.60;;;3.00;;
38937;SDS011;24727;51.974;20.868;2023-07-24T09:41:06;4.38;;;2.42;;
38937;SDS011;24727;51.974;20.868;2023-07-24T09:43:33;6.75;;;2.50;;
38937;SDS011;24727;51.974;20.868;2023-07-24T09:46:03;3.72;;;2.33;;
38937;SDS011;24727;51.974;20.868;2023-07-24T09:48:31;7.63;;;2.50;;
38937;SDS011;24727;51.974;20.868;2023-07-24T09:50:59;4.55;;;2.80;;
38937;SDS011;24727;51.974;20.868;2023-07-24T09:53:46;3.25;;;2.55;;
38937;SDS011;24727;51.974;20.868;2023-07-24T09:56:19;4.35;;;2.58;;
38937;SDS011;24727;51.974;20.868;2023-07-24T09:58:46;4.00;;;2.60;;
38937;SDS011;24727;51.974;20.868;2023-07-24T10:01:19;3.58;;;2.58;;
38937;SDS011;24727;51.974;20.868;2023-07-24T10:03:48;4.30;;;2.72;;
38937;SDS011;24727;51.974;20.868;2023-07-24T10:06:16;2.97;;;2.67;;
38937;SDS011;24727;51.974;20.868;2023-07-24T10:08:42;4.93;;;2.60;;
38937;SDS011;24727;51.974;20.868;2023-07-24T10:11:12;3.80;;;2.55;;
38937;SDS011;24727;51.974;20.868;2023-07-24T10:13:39;3.78;;;2.30;;
38937;SDS011;24727;51.974;20.868;2023-07-24T10:16:06;5.28;;;2.95;;
38937;SDS011;24727;51.974;20.868;2023-07-24T10:18:51;4.05;;;2.88;;
38937;SDS011;24727;51.974;20.868;2023-07-24T10:21:18;5.78;;;2.67;;
38937;SDS011;24727;51.974;20.868;2023-07-24T10:23:53;4.97;;;2.67;;
38937;SDS011;24727;51.974;20.868;2023-07-24T10:26:26;4.50;;;2.92;;
38937;SDS011;24727;51.974;20.868;2023-07-24T10:28:52;3.60;;;2.90;;
38937;SDS011;24727;51.974;20.868;2023-07-24T10:31:20;5.22;;;2.78;;
38937;SDS011;24727;51.974;20.868;2023-07-24T10:33:47;4.10;;;2.60;;
38937;SDS011;24727;51.974;20.868;2023-07-24T10:36:18;9.75;;;3.10;;
38937;SDS011;24727;51.974;20.868;2023-07-24T10:38:51;5.38;;;2.50;;
38937;SDS011;24727;51.974;20.868;2023-07-24T10:41:20;6.43;;;2.75;;
38937;SDS011;24727;51.974;20.868;2023-07-24T10:43:50;4.50;;;2.83;;
38937;SDS011;24727;51.974;20.868;2023-07-24T10:46:17;4.50;;;2.70;;
38937;SDS011;24727;51.974;20.868;2023-07-24T10:48:44;6.05;;;3.25;;
38937;SDS011;24727;51.974;20.868;2023-07-24T10:51:14;4.22;;;2.70;;
38937;SDS011;24727;51.974;20.868;2023-07-24T10:53:42;2.70;;;2.50;;
38937;SDS011;24727;51.974;20.868;2023-07-24T10:56:13;3.78;;;3.00;;
38937;SDS011;24727;51.974;20.868;2023-07-24T10:58:41;4.47;;;2.20;;
38937;SDS011;24727;51.974;20.868;2023-07-24T11:01:08;3.38;;;2.65;;
38937;SDS011;24727;51.974;20.868;2023-07-24T11:03:36;4.15;;;2.85;;
38937;SDS011;24727;51.974;20.868;2023-07-24T11:06:03;5.60;;;2.70;;
38937;SDS011;24727;51.974;20.868;2023-07-24T11:08:29;3.08;;;2.58;;
38937;SDS011;24727;51.974;20.868;2023-07-24T11:10:57;3.08;;;2.75;;
38937;SDS011;24727;51.974;20.868;2023-07-24T11:13:25;6.03;;;2.80;;
38937;SDS011;24727;51.974;20.868;2023-07-24T11:15:52;2.47;;;2.28;;
38937;SDS011;24727;51.974;20.868;2023-07-24T11:18:19;4.85;;;2.95;;
38937;SDS011;24727;51.974;20.868;2023-07-24T11:20:51;3.47;;;2.50;;
38937;SDS011;24727;51.974;20.868;2023-07-24T11:23:19;2.35;;;2.15;;
38937;SDS011;24727;51.974;20.868;2023-07-24T11:25:46;5.28;;;2.72;;
38937;SDS011;24727;51.974;20.868;2023-07-24T11:28:14;4.45;;;2.50;;
38937;SDS011;24727;51.974;20.868;2023-07-24T11:30:40;3.63;;;2.38;;
38937;SDS011;24727;51.974;20.868;2023-07-24T11:33:07;3.42;;;2.70;;
38937;SDS011;24727;51.974;20.868;2023-07-24T11:35:35;6.80;;;2.78;;
38937;SDS011;24727;51.974;20.868;2023-07-24T11:38:05;4.88;;;2.35;;
38937;SDS011;24727;51.974;20.868;2023-07-24T11:40:36;4.70;;;2.60;;
38937;SDS011;24727;51.974;20.868;2023-07-24T11:43:14;4.55;;;2.47;;
38937;SDS011;24727;51.974;20.868;2023-07-24T11:45:45;5.78;;;2.55;;
38937;SDS011;24727;51.974;20.868;2023-07-24T11:48:13;4.32;;;2.70;;
38937;SDS011;24727;51.974;20.868;2023-07-24T11:50:44;4.00;;;2.95;;
38937;SDS011;24727;51.974;20.868;2023-07-24T11:53:21;3.78;;;2.63;;
38937;SDS011;24727;51.974;20.868;2023-07-24T11:55:52;6.82;;;2.50;;
38937;SDS011;24727;51.974;20.868;2023-07-24T11:58:20;3.28;;;2.47;;
38937;SDS011;24727;51.974;20.868;2023-07-24T12:00:47;7.35;;;2.70;;
38937;SDS011;24727;51.974;20.868;2023-07-24T12:03:20;3.42;;;2.38;;
38937;SDS011;24727;51.974;20.868;2023-07-24T12:05:51;5.88;;;2.40;;
38937;SDS011;24727;51.974;20.868;2023-07-24T12:08:19;6.03;;;2.35;;
38937;SDS011;24727;51.974;20.868;2023-07-24T12:10:49;5.72;;;2.88;;
38937;SDS011;24727;51.974;20.868;2023-07-24T12:13:15;5.30;;;2.60;;
38937;SDS011;24727;51.974;20.868;2023-07-24T12:15:42;5.78;;;2.67;;
38937;SDS011;24727;51.974;20.868;2023-07-24T12:18:08;3.92;;;2.25;;
38937;SDS011;24727;51.974;20.868;2023-07-24T12:20:34;2.60;;;2.40;;
38937;SDS011;24727;51.974;20.868;2023-07-24T12:23:00;3.95;;;2.20;;
38937;SDS011;24727;51.974;20.868;2023-07-24T12:25:28;2.30;;;2.10;;
38937;SDS011;24727;51.974;20.868;2023-07-24T12:27:54;4.03;;;2.38;;
38937;SDS011;24727;51.974;20.868;2023-07-24T12:30:21;6.00;;;2.75;;
38937;SDS011;24727;51.974;20.868;2023-07-24T12:32:47;2.53;;;2.33;;
38937;SDS011;24727;51.974;20.868;2023-07-24T12:35:15;4.28;;;2.63;;
38937;SDS011;24727;51.974;20.868;2023-07-24T12:37:43;5.18;;;2.45;;
38937;SDS011;24727;51.974;20.868;2023-07-24T12:40:11;2.55;;;2.20;;
38937;SDS011;24727;51.974;20.868;2023-07-24T12:42:37;8.05;;;2.58;;
38937;SDS011;24727;51.974;20.868;2023-07-24T12:45:04;2.90;;;2.53;;
38937;SDS011;24727;51.974;20.868;2023-07-24T12:47:31;2.70;;;2.38;;
38937;SDS011;24727;51.974;20.868;2023-07-24T12:49:57;5.55;;;2.70;;
38937;SDS011;24727;51.974;20.868;2023-07-24T12:52:24;3.47;;;2.40;;
38937;SDS011;24727;51.974;20.868;2023-07-24T12:54:51;2.80;;;2.60;;
38937;SDS011;24727;51.974;20.868;2023-07-24T12:57:17;5.05;;;2.60;;
38937;SDS011;24727;51.974;20.868;2023-07-24T12:59:44;3.55;;;2.92;;
38937;SDS011;24727;51.974;20.868;2023-07-24T13:02:12;3.42;;;2.60;;
38937;SDS011;24727;51.974;20.868;2023-07-24T13:04:37;4.18;;;2.53;;
38937;SDS011;24727;51.974;20.868;2023-07-24T13:07:04;3.20;;;2.58;;
38937;SDS011;24727;51.974;20.868;2023-07-24T13:09:30;7.90;;;2.78;;
38937;SDS011;24727;51.974;20.868;2023-07-24T13:14:32;4.13;;;2.65;;
38937;SDS011;24727;51.974;20.868;2023-07-24T13:17:00;5.90;;;2.70;;
38937;SDS011;24727;51.974;20.868;2023-07-24T13:19:27;5.10;;;2.90;;
38937;SDS011;24727;51.974;20.868;2023-07-24T13:21:53;17.38;;;3.20;;
38937;SDS011;24727;51.974;20.868;2023-07-24T13:24:19;7.55;;;2.72;;
38937;SDS011;24727;51.974;20.868;2023-07-24T13:26:45;5.20;;;2.80;;
38937;SDS011;24727;51.974;20.868;2023-07-24T13:29:11;7.78;;;3.70;;
38937;SDS011;24727;51.974;20.868;2023-07-24T13:31:36;5.47;;;2.95;;
38937;SDS011;24727;51.974;20.868;2023-07-24T13:34:09;5.07;;;2.80;;
38937;SDS011;24727;51.974;20.868;2023-07-24T13:36:36;6.55;;;3.33;;
38937;SDS011;24727;51.974;20.868;2023-07-24T13:39:03;7.38;;;3.20;;
38937;SDS011;24727;51.974;20.868;2023-07-24T13:41:30;5.53;;;3.17;;
38937;SDS011;24727;51.974;20.868;2023-07-24T13:43:57;8.55;;;3.75;;
38937;SDS011;24727;51.974;20.868;2023-07-24T13:46:23;6.03;;;3.22;;
38937;SDS011;24727;51.974;20.868;2023-07-24T13:48:55;6.72;;;3.10;;
38937;SDS011;24727;51.974;20.868;2023-07-24T13:51:21;9.13;;;3.72;;
38937;SDS011;24727;51.974;20.868;2023-07-24T13:53:47;9.45;;;3.28;;
38937;SDS011;24727;51.974;20.868;2023-07-24T13:56:16;3.95;;;3.08;;
38937;SDS011;24727;51.974;20.868;2023-07-24T13:58:44;5.38;;;3.65;;
38937;SDS011;24727;51.974;20.868;2023-07-24T14:01:10;8.48;;;3.10;;
38937;SDS011;24727;51.974;20.868;2023-07-24T14:03:36;5.00;;;3.08;;
38937;SDS011;24727;51.974;20.868;2023-07-24T14:06:02;8.02;;;3.70;;
38937;SDS011;24727;51.974;20.868;2023-07-24T14:08:29;4.78;;;3.22;;
38937;SDS011;24727;51.974;20.868;2023-07-24T14:10:55;6.40;;;3.15;;
38937;SDS011;24727;51.974;20.868;2023-07-24T14:13:21;5.70;;;3.30;;
38937;SDS011;24727;51.974;20.868;2023-07-24T14:15:47;6.18;;;3.40;;
38937;SDS011;24727;51.974;20.868;2023-07-24T14:18:15;4.15;;;3.47;;
38937;SDS011;24727;51.974;20.868;2023-07-24T14:20:42;5.57;;;3.35;;
38937;SDS011;24727;51.974;20.868;2023-07-24T14:23:09;10.23;;;3.83;;
38937;SDS011;24727;51.974;20.868;2023-07-24T14:25:35;5.88;;;3.60;;
38937;SDS011;24727;51.974;20.868;2023-07-24T14:28:01;8.43;;;3.78;;
38937;SDS011;24727;51.974;20.868;2023-07-24T14:30:27;5.28;;;3.30;;
38937;SDS011;24727;51.974;20.868;2023-07-24T14:32:54;7.78;;;3.50;;
38937;SDS011;24727;51.974;20.868;2023-07-24T14:35:20;6.60;;;3.78;;
38937;SDS011;24727;51.974;20.868;2023-07-24T14:37:49;5.82;;;4.00;;
38937;SDS011;24727;51.974;20.868;2023-07-24T14:40:15;7.97;;;4.18;;
38937;SDS011;24727;51.974;20.868;2023-07-24T14:42:41;6.85;;;4.30;;
38937;SDS011;24727;51.974;20.868;2023-07-24T14:45:07;7.45;;;4.07;;
38937;SDS011;24727;51.974;20.868;2023-07-24T14:47:34;5.03;;;3.90;;